Time;durP1;ratioP1;P1;durP2;ratioP2;P2;SDS_P1;SDS_P2;PMS_P1;PMS_P2;Temp;Humidity;BMP_temperature;BMP_pressure;BME280_temperature;BME280_humidity;BME280_pressure;Samples;Min_cycle;Max_cycle;Signal;HPM_P1;HPM_P2
2021/04/22 00:00:21;;;;;;;8.68;5.10;;;;;;;8.49;70.44;97259.80;1799137;79;21116;-79
2021/04/22 00:02:51;;;;;;;7.28;5.97;;;;;;;8.52;70.12;97266.13;1799097;80;21108;-77
2021/04/22 00:05:27;;;;;;;9.35;6.60;;;;;;;8.50;69.82;97260.13;1799090;80;21257;-79
2021/04/22 00:07:58;;;;;;;8.18;6.15;;;;;;;8.50;69.79;97253.56;1798850;80;21118;-77
2021/04/22 00:10:34;;;;;;;7.58;6.30;;;;;;;8.49;69.85;97248.80;1798712;80;21111;-80
2021/04/22 00:13:03;;;;;;;9.80;7.00;;;;;;;8.50;69.57;97249.16;1824268;78;21123;-77
2021/04/22 00:15:31;;;;;;;9.85;7.12;;;;;;;8.53;69.52;97248.11;1831038;78;21140;-77
2021/04/22 00:18:00;;;;;;;8.80;7.17;;;;;;;8.52;69.58;97245.11;1806871;78;21143;-77
2021/04/22 00:20:28;;;;;;;11.78;8.38;;;;;;;8.51;69.54;97236.86;1798534;80;21123;-79
2021/04/22 00:22:55;;;;;;;9.83;7.72;;;;;;;8.47;69.44;97243.25;1817713;78;21482;-77
2021/04/22 00:25:23;;;;;;;10.85;7.45;;;;;;;8.46;69.53;97238.95;1805602;78;21124;-80
2021/04/22 00:27:50;;;;;;;10.00;7.37;;;;;;;8.43;69.55;97240.83;1798450;80;21132;-78
2021/04/22 00:30:18;;;;;;;8.40;6.70;;;;;;;8.40;69.65;97243.66;1801145;78;21100;-76
2021/04/22 00:32:50;;;;;;;8.43;6.45;;;;;;;8.30;69.56;97236.08;1805672;78;21237;-78
2021/04/22 00:35:18;;;;;;;9.18;6.80;;;;;;;8.16;69.59;97237.48;1798326;80;21088;-77
2021/04/22 00:37:46;;;;;;;10.63;6.70;;;;;;;8.06;69.66;97237.27;1798472;80;21117;-79
2021/04/22 00:40:19;;;;;;;10.68;6.97;;;;;;;7.98;69.78;97235.16;1799089;80;21271;-77
2021/04/22 00:42:47;;;;;;;9.80;7.15;;;;;;;7.93;69.98;97243.83;1815313;78;21218;-83
2021/04/22 00:45:17;;;;;;;12.30;7.47;;;;;;;7.88;70.05;97237.58;1809530;78;21269;-78
2021/04/22 00:47:45;;;;;;;8.65;7.12;;;;;;;7.85;70.21;97234.29;1814838;78;21691;-78
2021/04/22 00:50:23;;;;;;;11.73;7.80;;;;;;;7.80;70.21;97234.14;1798623;80;21088;-78
2021/04/22 00:52:57;;;;;;;8.75;7.05;;;;;;;7.78;70.37;97236.02;1798403;80;21217;-77
2021/04/22 00:55:28;;;;;;;10.25;6.17;;;;;;;7.73;70.37;97237.27;1771636;80;21232;-77
2021/04/22 00:57:57;;;;;;;8.33;6.50;;;;;;;7.69;70.39;97230.08;1798301;80;21561;-80
2021/04/22 01:00:29;;;;;;;7.05;6.17;;;;;;;7.68;70.62;97236.75;1828192;78;21268;-77
2021/04/22 01:02:57;;;;;;;10.82;6.10;;;;;;;7.66;70.88;97235.06;1830975;78;21301;-79
2021/04/22 01:05:37;;;;;;;10.15;6.58;;;;;;;7.64;70.95;97226.45;1816986;78;21342;-78
2021/04/22 01:08:05;;;;;;;8.08;5.62;;;;;;;7.68;71.12;97229.70;1823334;78;21152;-78
2021/04/22 01:10:33;;;;;;;9.40;5.70;;;;;;;7.74;71.25;97233.25;1813283;78;21281;-82
2021/04/22 01:13:00;;;;;;;7.85;6.28;;;;;;;7.82;71.32;97234.03;1798805;78;21119;-78
2021/04/22 01:15:30;;;;;;;7.10;5.47;;;;;;;7.89;71.67;97230.05;1758825;82;21145;-80
2021/04/22 01:17:59;;;;;;;7.78;5.78;;;;;;;7.94;71.51;97234.53;1728569;83;21168;-78
2021/04/22 01:20:34;;;;;;;8.23;5.40;;;;;;;8.02;71.72;97239.27;1758650;82;21211;-80
2021/04/22 01:23:04;;;;;;;7.28;5.55;;;;;;;8.11;71.53;97239.96;1741894;81;21232;-78
2021/04/22 01:25:38;;;;;;;7.25;5.58;;;;;;;8.16;71.64;97238.79;1782504;80;21263;-79
2021/04/22 01:28:10;;;;;;;9.50;6.12;;;;;;;8.07;71.40;97235.84;1763391;80;21139;-80
2021/04/22 01:30:42;;;;;;;8.43;6.05;;;;;;;7.95;71.54;97228.80;1759950;80;21100;-78
2021/04/22 01:33:14;;;;;;;9.15;6.47;;;;;;;7.85;71.28;97227.28;1735268;82;21149;-79
2021/04/22 01:35:46;;;;;;;8.85;6.42;;;;;;;7.84;71.25;97226.08;1760964;80;21250;-79
2021/04/22 01:38:15;;;;;;;8.50;6.20;;;;;;;7.78;71.44;97224.21;1768622;81;21142;-79
2021/04/22 01:40:43;;;;;;;7.85;6.33;;;;;;;7.68;71.72;97220.52;1766899;80;21281;-79
2021/04/22 01:43:12;;;;;;;12.98;6.67;;;;;;;7.68;71.72;97220.52;1769379;81;21120;-79
2021/04/22 01:45:39;;;;;;;10.10;7.17;;;;;;;7.64;71.41;97223.00;1768054;81;21127;-79
2021/04/22 01:48:08;;;;;;;9.05;7.10;;;;;;;7.66;71.77;97229.81;1768958;81;21132;-78
2021/04/22 01:50:37;;;;;;;9.68;7.20;;;;;;;7.65;71.62;97221.57;1774788;81;21271;-81
2021/04/22 01:53:07;;;;;;;9.85;6.60;;;;;;;7.94;72.15;97228.42;1763632;80;21297;-79
2021/04/22 01:55:48;;;;;;;9.48;7.60;;;;;;;7.94;72.15;97228.42;1766945;81;21219;-78
2021/04/22 01:58:23;;;;;;;10.40;7.20;;;;;;;8.01;72.09;97225.78;1774006;81;21149;-78
2021/04/22 02:00:54;;;;;;;11.30;8.20;;;;;;;8.07;72.01;97233.22;1784172;80;21266;-77
2021/04/22 02:03:23;;;;;;;11.50;7.85;;;;;;;8.05;71.92;97229.86;1777575;80;21140;-79
2021/04/22 02:05:50;;;;;;;10.38;7.85;;;;;;;8.03;71.83;97229.11;1770654;81;21136;-78
2021/04/22 02:08:18;;;;;;;14.70;8.03;;;;;;;7.96;71.65;97232.65;1758352;81;21143;-78
2021/04/22 02:10:45;;;;;;;11.03;8.15;;;;;;;7.90;71.77;97236.15;1758388;82;21191;-81
2021/04/22 02:13:15;;;;;;;12.28;8.43;;;;;;;7.83;71.73;97228.33;1786492;80;21123;-76
2021/04/22 02:15:44;;;;;;;11.10;7.70;;;;;;;7.76;71.74;97233.97;1789857;80;21151;-78
2021/04/22 02:18:12;;;;;;;14.20;8.33;;;;;;;7.71;71.81;97228.66;1764133;80;21301;-83
2021/04/22 02:20:40;;;;;;;11.85;8.73;;;;;;;7.64;71.69;97224.31;1765118;80;21298;-78
2021/04/22 02:23:11;;;;;;;13.25;9.00;;;;;;;7.41;71.76;97214.02;1760179;81;21242;-83
2021/04/22 02:25:40;;;;;;;11.75;9.40;;;;;;;7.34;71.89;97218.81;1773081;80;21766;-80
2021/04/22 02:28:11;;;;;;;15.08;8.48;;;;;;;7.34;71.89;97218.81;1768781;80;21136;-84
2021/04/22 02:30:41;;;;;;;11.40;8.70;;;;;;;7.23;71.89;97216.91;1758754;82;21159;-80
2021/04/22 02:33:13;;;;;;;15.50;9.08;;;;;;;7.12;71.81;97229.38;1739224;82;21256;-81
2021/04/22 02:35:44;;;;;;;13.68;10.05;;;;;;;7.00;71.89;97225.77;1740774;82;21092;-80
2021/04/22 02:38:13;;;;;;;17.05;10.08;;;;;;;6.86;72.04;97227.95;1760986;81;21155;-80
2021/04/22 02:40:44;;;;;;;12.25;9.25;;;;;;;6.75;72.36;97235.64;1742211;82;21128;-80
2021/04/22 02:43:14;;;;;;;13.48;9.60;;;;;;;6.65;72.53;97241.93;1742550;82;21148;-78
2021/04/22 02:45:48;;;;;;;15.25;9.60;;;;;;;6.58;72.53;97245.02;1742710;82;21458;-77
2021/04/22 02:48:16;;;;;;;15.98;10.25;;;;;;;6.46;72.51;97242.69;1745141;81;21163;-77
2021/04/22 02:50:47;;;;;;;14.65;11.38;;;;;;;6.34;72.90;97239.05;1772904;81;21285;-80
2021/04/22 02:53:15;;;;;;;13.70;10.38;;;;;;;6.30;72.82;97238.84;1771001;81;21151;-83
2021/04/22 02:55:45;;;;;;;14.38;9.93;;;;;;;6.26;73.38;97239.50;1742454;81;21143;-79
2021/04/22 02:58:16;;;;;;;14.98;10.05;;;;;;;6.25;73.53;97237.82;1754107;81;21143;-78
2021/04/22 03:00:46;;;;;;;14.38;10.00;;;;;;;6.24;74.96;97230.45;1772773;81;21266;-80
2021/04/22 03:03:13;;;;;;;13.80;9.03;;;;;;;6.23;75.21;97235.30;1772913;81;21128;-78
2021/04/22 03:05:42;;;;;;;13.48;10.03;;;;;;;6.24;74.60;97229.59;1769205;81;21144;-86
2021/04/22 03:08:10;;;;;;;13.95;9.53;;;;;;;6.25;74.54;97233.44;1742958;82;21574;-84
2021/04/22 03:10:39;;;;;;;13.40;8.98;;;;;;;6.29;74.56;97231.48;1743138;82;21104;-80
2021/04/22 03:13:07;;;;;;;12.33;9.15;;;;;;;6.31;74.33;97240.05;1742383;81;21164;-78
2021/04/22 03:15:36;;;;;;;20.70;9.83;;;;;;;6.32;74.44;97233.89;1742186;82;21190;-84
2021/04/22 03:18:04;;;;;;;13.62;9.70;;;;;;;6.34;74.42;97238.57;1742278;82;21496;-81
2021/04/22 03:20:35;;;;;;;15.55;8.73;;;;;;;6.33;74.43;97236.05;1742538;82;21273;-82
2021/04/22 03:23:03;;;;;;;13.40;8.78;;;;;;;6.35;75.13;97234.19;1751390;81;21139;-82
2021/04/22 03:25:30;;;;;;;14.13;9.40;;;;;;;6.43;75.04;97234.56;1762171;81;21119;-86
2021/04/22 03:27:58;;;;;;;13.88;10.58;;;;;;;6.51;74.81;97238.00;1747257;81;21143;-85
2021/04/22 03:30:32;;;;;;;15.10;10.40;;;;;;;6.58;74.86;97239.33;1774039;81;21136;-82
2021/04/22 03:33:01;;;;;;;19.90;10.85;;;;;;;6.63;74.72;97240.35;1755124;81;21096;-85
2021/04/22 03:35:29;;;;;;;17.02;10.23;;;;;;;6.72;74.58;97234.54;1762339;81;21144;-84
2021/04/22 03:37:57;;;;;;;22.13;10.65;;;;;;;6.72;74.58;97234.54;1752874;81;21281;-84
2021/04/22 03:40:27;;;;;;;19.57;11.43;;;;;;;6.68;74.69;97243.03;1753496;82;21332;-85
2021/04/22 03:42:55;;;;;;;13.78;9.33;;;;;;;6.66;74.74;97237.52;1736053;81;21246;-83
2021/04/22 03:45:24;;;;;;;16.10;11.48;;;;;;;6.61;75.41;97239.59;1794371;79;21545;-79
2021/04/22 03:47:53;;;;;;;18.12;14.23;;;;;;;6.51;75.35;97240.62;1791045;80;21227;-86
2021/04/22 03:50:21;;;;;;;21.17;14.58;;;;;;;6.45;75.12;97244.45;1795759;80;21084;-79
2021/04/22 03:52:49;;;;;;;21.97;13.48;;;;;;;6.46;75.13;97252.69;1795716;79;21096;-78
2021/04/22 03:55:19;;;;;;;17.60;12.82;;;;;;;6.48;75.03;97248.68;1808319;79;21211;-80
2021/04/22 03:57:48;;;;;;;22.87;14.95;;;;;;;6.43;75.19;97242.41;1822693;79;21089;-80
2021/04/22 04:00:19;;;;;;;15.90;11.63;;;;;;;6.40;75.07;97249.14;1795583;79;21227;-82
2021/04/22 04:02:47;;;;;;;17.07;13.40;;;;;;;6.36;75.55;97246.32;1803357;79;21145;-80
2021/04/22 04:05:15;;;;;;;19.25;14.20;;;;;;;6.32;75.58;97254.00;1796051;78;21148;-81
2021/04/22 04:07:46;;;;;;;17.98;13.58;;;;;;;6.34;75.56;97254.28;1791103;80;21093;-84
2021/04/22 04:10:14;;;;;;;23.20;13.83;;;;;;;6.38;75.96;97253.62;1760762;80;21101;-83
2021/04/22 04:12:41;;;;;;;14.65;10.75;;;;;;;6.44;75.70;97255.03;1791077;80;21226;-83
2021/04/22 04:15:12;;;;;;;13.43;8.25;;;;;;;6.46;76.05;97255.30;1796309;79;21235;-79
2021/04/22 04:17:41;;;;;;;21.45;12.93;;;;;;;6.47;76.10;97262.70;1796473;80;21284;-83
2021/04/22 04:20:13;;;;;;;18.00;13.85;;;;;;;6.48;75.89;97266.53;1793490;80;21274;-82
2021/04/22 04:22:46;;;;;;;18.00;14.30;;;;;;;6.52;76.06;97263.25;1811059;78;21270;-79
2021/04/22 04:25:16;;;;;;;20.75;13.78;;;;;;;6.64;76.16;97269.06;1812879;78;21136;-82
2021/04/22 04:27:44;;;;;;;18.90;13.22;;;;;;;6.74;75.79;97267.18;1823346;79;21151;-83
2021/04/22 04:30:18;;;;;;;22.37;14.18;;;;;;;6.84;75.81;97263.88;1800931;79;21088;-79
2021/04/22 04:32:47;;;;;;;17.32;12.85;;;;;;;6.93;75.76;97264.23;1823304;77;21278;-81
2021/04/22 04:35:15;;;;;;;23.00;15.35;;;;;;;7.04;75.89;97265.72;1787142;79;21127;-80
2021/04/22 04:37:42;;;;;;;20.95;14.07;;;;;;;7.06;75.45;97266.47;1815508;78;21128;-83
2021/04/22 04:40:14;;;;;;;21.57;15.05;;;;;;;7.09;75.30;97271.53;1821328;78;21211;-83
2021/04/22 04:42:42;;;;;;;24.00;14.85;;;;;;;7.38;75.74;97267.97;1796067;79;21246;-81
2021/04/22 04:45:15;;;;;;;21.95;13.08;;;;;;;7.72;75.41;97274.94;1801919;79;21243;-78
2021/04/22 04:47:45;;;;;;;19.82;14.03;;;;;;;8.02;75.05;97280.42;1823283;79;21108;-77
2021/04/22 04:50:17;;;;;;;20.40;15.25;;;;;;;8.27;73.85;97276.98;1823220;79;21089;-79
2021/04/22 04:52:44;;;;;;;26.60;15.03;;;;;;;8.46;73.95;97275.72;1784575;79;21137;-81
2021/04/22 04:55:13;;;;;;;16.48;11.95;;;;;;;8.91;73.90;97273.00;1753700;82;21294;-78
2021/04/22 04:57:41;;;;;;;16.95;11.50;;;;;;;8.91;73.90;97273.00;1821734;79;21230;-83
2021/04/22 05:00:12;;;;;;;14.98;12.23;;;;;;;9.26;72.45;97280.64;1793889;79;21239;-79
2021/04/22 05:02:40;;;;;;;19.25;12.85;;;;;;;9.51;72.09;97279.70;1790460;79;21144;-84
2021/04/22 05:05:10;;;;;;;10.30;8.63;;;;;;;9.84;71.95;97279.47;1790601;80;21147;-83
2021/04/22 05:07:38;;;;;;;14.68;13.05;;;;;;;10.22;70.94;97280.20;1759671;80;21231;-85
2021/04/22 05:10:08;;;;;;;13.38;10.72;;;;;;;10.43;69.95;97275.59;1791230;79;21140;-81
2021/04/22 05:12:37;;;;;;;19.30;12.95;;;;;;;10.42;65.75;97275.23;1790725;80;21250;-82
2021/04/22 05:15:07;;;;;;;18.85;12.60;;;;;;;10.21;68.33;97276.38;1722635;83;21199;-85
2021/04/22 05:17:34;;;;;;;17.32;13.00;;;;;;;10.03;68.58;97281.22;1729981;83;21189;-82
2021/04/22 05:20:05;;;;;;;16.67;14.65;;;;;;;10.00;68.68;97280.49;1737783;82;21112;-83
2021/04/22 05:22:33;;;;;;;16.57;13.28;;;;;;;9.95;68.36;97280.02;1791156;79;21228;-80
2021/04/22 05:25:01;;;;;;;18.85;14.60;;;;;;;10.12;68.37;97277.90;1789492;80;21138;-86
2021/04/22 05:27:30;;;;;;;20.23;14.43;;;;;;;9.93;65.99;97276.65;1795686;79;21132;-82
2021/04/22 05:29:57;;;;;;;20.02;15.32;;;;;;;9.93;67.39;97274.02;1799928;79;21088;-87
2021/04/22 05:32:25;;;;;;;20.80;13.78;;;;;;;9.89;67.91;97281.77;1794666;79;21130;-80
2021/04/22 05:34:52;;;;;;;23.10;16.25;;;;;;;10.10;68.71;97255.63;1771467;81;21257;-84
2021/04/22 05:37:21;;;;;;;26.48;16.35;;;;;;;10.57;67.81;97279.31;1788757;79;21553;-85
2021/04/22 05:39:48;;;;;;;21.33;16.10;;;;;;;10.89;67.10;97280.39;1791984;80;21081;-89
2021/04/22 05:42:16;;;;;;;22.22;16.75;;;;;;;11.04;65.99;97282.30;1792785;79;21102;-82
2021/04/22 05:44:44;;;;;;;18.82;15.45;;;;;;;11.63;66.39;97281.09;1796694;79;21111;-85
2021/04/22 05:47:16;;;;;;;20.52;15.45;;;;;;;12.04;60.24;97281.30;1754248;80;21132;-81
2021/04/22 05:49:43;;;;;;;21.75;16.87;;;;;;;12.44;64.49;97277.09;1736553;82;21128;-81
2021/04/22 05:52:11;;;;;;;26.97;16.07;;;;;;;13.03;63.33;97276.91;1738190;82;21120;-87
2021/04/22 05:54:38;;;;;;;18.98;14.07;;;;;;;13.43;61.79;97274.70;1730591;82;21136;-78
2021/04/22 05:57:07;;;;;;;17.15;13.53;;;;;;;12.97;60.20;97277.41;1759820;80;21194;-78
2021/04/22 05:59:35;;;;;;;21.73;15.03;;;;;;;12.82;60.59;97280.91;1754335;80;21125;-76
2021/04/22 06:02:02;;;;;;;18.80;14.75;;;;;;;13.03;60.74;97276.05;1793946;79;21135;-77
2021/04/22 06:04:30;;;;;;;13.32;9.38;;;;;;;13.20;58.52;97282.02;1786760;80;21538;-78
2021/04/22 06:06:58;;;;;;;11.30;9.90;;;;;;;13.49;59.39;97287.07;1800435;79;21113;-78
2021/04/22 06:09:25;;;;;;;19.42;15.08;;;;;;;13.20;57.48;97284.66;1806049;79;21210;-79
2021/04/22 06:11:53;;;;;;;18.92;12.90;;;;;;;13.26;58.83;97279.31;1769757;80;21527;-77
2021/04/22 06:14:21;;;;;;;14.33;12.73;;;;;;;13.32;57.86;97280.08;1786795;80;21156;-78
2021/04/22 06:16:48;;;;;;;11.05;9.75;;;;;;;13.72;57.55;97280.53;1789137;79;21197;-77
2021/04/22 06:19:15;;;;;;;19.67;13.62;;;;;;;13.77;55.77;97283.27;1780665;80;21530;-78
2021/04/22 06:21:43;;;;;;;16.93;12.78;;;;;;;13.72;57.02;97276.55;1783034;79;21117;-78
2021/04/22 06:24:12;;;;;;;11.75;9.95;;;;;;;14.08;56.38;97279.13;1772899;80;21172;-78
2021/04/22 06:26:39;;;;;;;21.02;13.55;;;;;;;14.04;56.31;97272.80;1731002;81;21155;-78
2021/04/22 06:29:08;;;;;;;19.32;11.05;;;;;;;14.08;57.05;97272.50;1729627;82;21136;-79
2021/04/22 06:31:37;;;;;;;19.75;11.90;;;;;;;14.36;53.17;97271.63;1752590;80;21143;-79
2021/04/22 06:34:04;;;;;;;20.15;10.28;;;;;;;14.53;56.05;97266.55;1772764;80;21657;-88
2021/04/22 06:36:32;;;;;;;14.58;10.93;;;;;;;14.67;54.91;97269.26;1802641;79;21135;-86
2021/04/22 06:39:01;;;;;;;16.00;12.55;;;;;;;14.48;52.89;97266.16;1792154;79;21139;-79
2021/04/22 06:41:29;;;;;;;23.55;12.35;;;;;;;14.52;53.88;97259.59;1805258;79;21412;-87
2021/04/22 06:43:57;;;;;;;17.75;11.88;;;;;;;14.67;53.23;97261.30;1746785;80;21601;-80
2021/04/22 06:46:24;;;;;;;13.35;10.70;;;;;;;14.73;53.42;97253.25;1767914;80;21112;-81
2021/04/22 06:48:52;;;;;;;15.13;11.88;;;;;;;14.97;51.72;97246.95;1818914;79;21167;-76
2021/04/22 06:51:20;;;;;;;12.30;9.60;;;;;;;14.98;52.09;97252.61;1762377;80;21210;-81
2021/04/22 06:53:47;;;;;;;15.45;11.45;;;;;;;15.19;50.26;97252.82;1746442;82;21176;-78
2021/04/22 06:56:15;;;;;;;16.07;11.48;;;;;;;14.91;50.90;97262.62;1754967;81;21153;-80
2021/04/22 06:58:42;;;;;;;12.45;8.68;;;;;;;14.99;51.57;97261.39;1743943;81;21141;-77
2021/04/22 07:01:10;;;;;;;9.63;7.95;;;;;;;15.10;50.08;97265.66;1756477;81;21557;-77
2021/04/22 07:03:38;;;;;;;13.03;9.63;;;;;;;15.06;51.53;97272.27;1736353;81;21618;-77
2021/04/22 07:06:06;;;;;;;8.90;7.08;;;;;;;15.05;49.55;97271.91;1788691;79;21128;-78
2021/04/22 07:08:33;;;;;;;12.47;8.73;;;;;;;14.91;50.38;97271.91;1786508;80;21561;-78
2021/04/22 07:11:00;;;;;;;19.77;12.93;;;;;;;14.48;51.21;97287.37;1788280;79;21136;-79
2021/04/22 07:13:27;;;;;;;19.35;13.30;;;;;;;14.40;52.01;97284.60;1795321;79;21695;-78
2021/04/22 07:15:55;;;;;;;17.55;9.93;;;;;;;14.64;52.88;97278.31;1791802;80;21180;-80
2021/04/22 07:18:24;;;;;;;17.48;11.50;;;;;;;15.08;52.34;97281.74;1787511;79;21137;-81
2021/04/22 07:20:51;;;;;;;17.42;10.78;;;;;;;15.25;52.32;97282.78;1781257;79;21148;-88
2021/04/22 07:23:19;;;;;;;15.88;11.08;;;;;;;15.42;50.48;97277.65;1792453;80;21113;-89
2021/04/22 07:25:48;;;;;;;21.30;11.38;;;;;;;15.42;50.77;97279.80;1792413;79;21555;-90
2021/04/22 07:28:15;;;;;;;15.98;10.65;;;;;;;15.11;51.08;97281.45;1792403;79;21302;-89
2021/04/22 07:30:43;;;;;;;17.77;8.25;;;;;;;15.24;51.91;97277.60;1792241;79;21546;-89
2021/04/22 07:33:11;;;;;;;19.98;14.80;;;;;;;15.45;51.36;97276.03;1794600;79;21155;-86
2021/04/22 07:35:39;;;;;;;10.70;7.95;;;;;;;15.60;51.74;97276.33;1809281;79;21132;-86
2021/04/22 07:38:10;;;;;;;16.52;10.28;;;;;;;15.92;50.59;97285.13;1802400;78;21605;-82
2021/04/22 07:40:39;;;;;;;17.85;13.70;;;;;;;15.65;50.51;97279.86;1819191;79;21139;-80
2021/04/22 07:43:08;;;;;;;19.07;13.83;;;;;;;15.48;51.46;97285.52;1792459;78;21120;-84
2021/04/22 07:45:41;;;;;;;19.27;13.03;;;;;;;15.67;52.20;97276.56;1794951;78;21100;-81
2021/04/22 07:48:09;;;;;;;14.80;11.90;;;;;;;15.87;50.62;97279.96;1797465;78;21134;-83
2021/04/22 07:50:37;;;;;;;19.60;12.23;;;;;;;16.04;50.82;97274.27;1794236;78;21092;-90
2021/04/22 07:53:06;;;;;;;15.23;11.55;;;;;;;16.11;51.18;97266.52;1786917;80;21196;-84
2021/04/22 07:55:44;;;;;;;17.92;11.88;;;;;;;16.22;50.33;97272.42;1743748;82;21176;-79
2021/04/22 07:58:15;;;;;;;23.85;14.65;;;;;;;16.20;50.25;97266.92;1790556;79;21128;-76
2021/04/22 08:00:48;;;;;;;11.78;9.15;;;;;;;16.30;50.53;97270.80;1786571;80;21189;-89
2021/04/22 08:03:17;;;;;;;12.85;7.72;;;;;;;16.50;50.25;97262.97;1787481;79;21116;-80
2021/04/22 08:05:47;;;;;;;14.25;11.43;;;;;;;16.73;49.99;97265.59;1788687;78;21115;-86
2021/04/22 08:08:15;;;;;;;15.28;12.23;;;;;;;16.41;48.57;97261.25;1750965;81;21152;-86
2021/04/22 08:10:45;;;;;;;22.35;13.35;;;;;;;16.08;49.92;97264.50;1800199;79;21202;-80
2021/04/22 08:13:16;;;;;;;16.82;12.70;;;;;;;15.90;50.23;97257.89;1789623;79;21644;-82
2021/04/22 08:15:47;;;;;;;14.60;9.88;;;;;;;15.93;49.73;97265.55;1804756;78;21603;-85
2021/04/22 08:18:14;;;;;;;14.40;11.40;;;;;;;15.98;50.13;97270.91;1800441;79;21429;-84
2021/04/22 08:20:43;;;;;;;13.28;9.78;;;;;;;15.83;50.25;97269.25;1787347;79;21151;-85
2021/04/22 08:23:12;;;;;;;14.23;9.28;;;;;;;15.84;50.29;97265.64;1794733;79;21186;-84
2021/04/22 08:25:48;;;;;;;12.47;9.05;;;;;;;15.48;50.39;97261.10;1794131;79;21609;-81
2021/04/22 08:28:18;;;;;;;18.30;13.25;;;;;;;15.33;51.16;97275.38;1807236;78;21115;-82
2021/04/22 08:30:53;;;;;;;12.05;8.90;;;;;;;15.23;51.64;97265.30;1792829;79;21292;-90
2021/04/22 08:33:25;;;;;;;16.77;10.68;;;;;;;15.11;51.85;97268.66;1795390;79;21123;-86
2021/04/22 08:35:53;;;;;;;17.05;11.83;;;;;;;14.95;52.29;97277.25;1756337;80;21127;-82
2021/04/22 08:38:21;;;;;;;14.33;11.93;;;;;;;14.80;52.55;97271.11;1795396;78;21136;-79
2021/04/22 08:40:51;;;;;;;16.70;13.65;;;;;;;14.67;52.95;97266.61;1807358;78;21118;-80
2021/04/22 08:43:22;;;;;;;11.45;9.15;;;;;;;14.59;53.32;97259.36;1798385;78;21615;-79
2021/04/22 08:45:51;;;;;;;16.62;13.30;;;;;;;14.67;53.52;97266.61;1805272;78;21538;-81
2021/04/22 08:48:19;;;;;;;16.15;13.10;;;;;;;14.75;53.78;97266.74;1816079;78;21572;-78
2021/04/22 08:50:51;;;;;;;17.60;13.60;;;;;;;14.83;53.62;97272.16;1802360;78;21534;-79
2021/04/22 08:53:29;;;;;;;12.63;8.95;;;;;;;14.85;53.66;97264.03;1784786;80;21131;-78
2021/04/22 08:55:57;;;;;;;20.05;14.68;;;;;;;14.86;53.54;97261.73;1756404;81;21107;-78
2021/04/22 08:58:26;;;;;;;18.32;14.38;;;;;;;14.82;53.89;97260.34;1714952;82;21159;-77
2021/04/22 09:01:01;;;;;;;18.02;15.00;;;;;;;14.98;53.97;97262.37;1753391;81;21610;-78
2021/04/22 09:03:29;;;;;;;19.03;14.10;;;;;;;15.17;52.81;97269.89;1739843;81;21143;-77
2021/04/22 09:05:56;;;;;;;24.55;15.10;;;;;;;15.17;52.81;97269.89;1739227;82;21573;-78
2021/04/22 09:08:35;;;;;;;11.30;9.10;;;;;;;15.18;53.10;97270.23;1735122;81;21183;-79
2021/04/22 09:11:08;;;;;;;19.70;14.98;;;;;;;15.25;52.72;97263.34;1752029;81;21581;-79
2021/04/22 09:13:36;;;;;;;18.57;12.98;;;;;;;15.27;53.06;97258.73;1741845;81;21548;-76
2021/04/22 09:16:17;;;;;;;14.65;12.10;;;;;;;15.38;53.02;97265.16;1752088;81;21217;-76
2021/04/22 09:18:50;;;;;;;18.25;13.05;;;;;;;15.37;52.37;97266.14;1739383;82;21644;-78
2021/04/22 09:21:28;;;;;;;16.57;11.38;;;;;;;15.29;52.08;97257.59;1755273;81;21158;-84
2021/04/22 09:24:09;;;;;;;17.40;14.00;;;;;;;15.39;52.49;97256.22;1769890;81;21593;-82
2021/04/22 09:26:48;;;;;;;16.97;13.48;;;;;;;15.49;51.89;97256.14;1739369;82;21188;-78
2021/04/22 09:29:32;;;;;;;14.55;11.00;;;;;;;15.61;51.92;97251.43;1739861;81;21147;-78
2021/04/22 09:35:15;;;;;;;16.05;12.47;;;;;;;16.02;48.70;97251.84;1821110;77;23595;-80
2021/04/22 09:37:52;;;;;;;16.87;14.35;;;;;;;16.18;50.26;97255.13;1795482;78;21129;-77
2021/04/22 09:40:36;;;;;;;21.60;14.35;;;;;;;16.38;49.00;97252.23;1813628;78;21114;-78
2021/04/22 09:43:08;;;;;;;19.00;12.53;;;;;;;16.44;48.75;97248.13;1801459;78;21136;-78
2021/04/22 09:45:35;;;;;;;15.25;12.13;;;;;;;16.39;45.46;97260.09;1799191;78;21211;-78
2021/04/22 09:48:28;;;;;;;15.58;12.18;;;;;;;16.50;47.95;97247.01;1793244;80;21168;-77
2021/04/22 09:50:52;;;;;;;13.00;10.70;;;;;;;16.46;46.86;97244.81;1805967;78;21113;-77
2021/04/22 09:53:21;;;;;;;17.75;11.85;;;;;;;16.16;46.28;97243.80;1809410;78;21193;-77
2021/04/22 09:55:52;;;;;;;16.15;10.23;;;;;;;15.96;47.11;97239.65;1815558;78;21530;-78
2021/04/22 09:58:29;;;;;;;23.15;15.18;;;;;;;15.91;48.54;97236.95;1825312;77;21180;-79
2021/04/22 10:00:57;;;;;;;17.02;12.07;;;;;;;15.86;49.81;97237.09;1820254;78;21120;-79
2021/04/22 10:03:24;;;;;;;17.05;11.95;;;;;;;15.80;49.57;97227.88;1803919;78;21085;-77
2021/04/22 10:06:01;;;;;;;17.17;14.63;;;;;;;15.71;50.39;97222.97;1794926;80;21112;-77
2021/04/22 10:08:29;;;;;;;16.67;13.53;;;;;;;15.71;50.70;97220.31;1814858;78;21129;-79
2021/04/22 10:11:07;;;;;;;18.70;13.28;;;;;;;15.73;50.64;97220.17;1815917;78;21566;-81
2021/04/22 10:13:51;;;;;;;19.20;12.98;;;;;;;15.71;50.63;97218.98;1819243;78;21140;-79
2021/04/22 10:16:18;;;;;;;17.45;12.88;;;;;;;15.75;50.41;97220.83;1806847;78;21170;-77
2021/04/22 10:18:48;;;;;;;22.10;12.85;;;;;;;15.66;49.84;97221.27;1784488;80;21156;-74
2021/04/22 10:21:16;;;;;;;11.03;7.12;;;;;;;15.68;50.22;97219.78;1788157;80;21571;-78
2021/04/22 10:23:43;;;;;;;13.25;10.85;;;;;;;15.64;50.18;97225.90;1795467;80;21654;-77
2021/04/22 10:26:20;;;;;;;19.77;11.15;;;;;;;15.47;50.89;97226.23;1793700;79;21177;-78
2021/04/22 10:28:48;;;;;;;14.75;10.53;;;;;;;15.30;51.43;97215.95;1779470;78;21131;-78
2021/04/22 10:31:16;;;;;;;15.43;9.98;;;;;;;15.34;51.10;97222.62;1778116;78;21149;-78
2021/04/22 10:33:45;;;;;;;14.33;10.60;;;;;;;15.42;51.55;97220.55;1790744;78;21155;-78
2021/04/22 10:36:20;;;;;;;15.95;10.95;;;;;;;15.61;51.66;97208.45;1764451;81;21217;-78
2021/04/22 10:38:53;;;;;;;13.95;10.05;;;;;;;15.82;51.41;97213.09;1779188;80;21120;-77
2021/04/22 10:41:21;;;;;;;12.82;9.55;;;;;;;15.96;50.44;97209.90;1793510;78;21113;-78
2021/04/22 10:43:49;;;;;;;9.85;5.28;;;;;;;15.98;49.78;97217.74;1788600;78;21090;-82
2021/04/22 10:46:18;;;;;;;9.18;6.53;;;;;;;15.78;48.26;97226.67;1795502;80;21192;-77
2021/04/22 10:48:45;;;;;;;11.15;5.40;;;;;;;15.25;49.06;97221.71;1794408;80;21176;-79
2021/04/22 10:51:13;;;;;;;12.03;8.03;;;;;;;14.91;49.51;97228.12;1789302;78;21148;-78
2021/04/22 10:53:41;;;;;;;9.10;7.75;;;;;;;14.50;50.07;97223.09;1775992;80;21125;-77
2021/04/22 10:56:09;;;;;;;8.45;7.33;;;;;;;14.29;50.88;97222.80;1789203;78;21232;-76
2021/04/22 10:58:42;;;;;;;7.30;4.80;;;;;;;14.10;51.49;97236.95;1777952;79;21113;-80
2021/04/22 11:01:13;;;;;;;16.15;10.25;;;;;;;13.96;51.28;97243.52;1778720;78;21142;-77
2021/04/22 11:03:47;;;;;;;13.03;10.58;;;;;;;13.74;51.82;97239.32;1764446;78;21108;-78
2021/04/22 11:06:21;;;;;;;13.10;10.50;;;;;;;13.88;51.95;97228.78;1764360;78;21213;-78
2021/04/22 11:08:52;;;;;;;13.83;8.83;;;;;;;14.04;51.61;97210.52;1781764;78;21141;-78
2021/04/22 11:11:27;;;;;;;13.08;10.43;;;;;;;14.19;51.14;97214.03;1794157;79;21622;-79
2021/04/22 11:14:14;;;;;;;14.78;10.30;;;;;;;14.28;50.86;97223.78;1785946;78;21137;-77
2021/04/22 11:16:50;;;;;;;13.70;10.65;;;;;;;14.50;51.04;97229.72;1785967;80;21568;-78
2021/04/22 11:19:22;;;;;;;9.33;6.35;;;;;;;14.78;50.90;97237.24;1790562;78;21117;-78
2021/04/22 11:21:59;;;;;;;14.05;9.98;;;;;;;14.92;50.33;97243.88;1793796;79;21149;-78
2021/04/22 11:24:30;;;;;;;13.45;8.25;;;;;;;14.98;50.85;97249.95;1783293;80;21153;-77
2021/04/22 11:27:13;;;;;;;11.48;8.90;;;;;;;15.17;50.82;97238.88;1793501;80;21102;-77
2021/04/22 11:29:47;;;;;;;15.03;9.83;;;;;;;14.86;50.00;97243.16;1772017;78;21534;-76
2021/04/22 11:32:35;;;;;;;14.75;9.03;;;;;;;14.57;51.23;97234.79;1727937;81;21179;-79
2021/04/22 11:35:18;;;;;;;11.73;6.85;;;;;;;14.51;51.38;97235.38;1737943;82;21106;-78
2021/04/22 11:38:06;;;;;;;9.95;7.35;;;;;;;14.38;50.46;97225.09;1777925;79;21163;-79
2021/04/22 11:40:46;;;;;;;6.42;5.50;;;;;;;14.47;50.42;97216.74;1782015;80;21114;-79
2021/04/22 11:43:27;;;;;;;8.85;6.80;;;;;;;14.73;49.46;97209.48;1786654;80;21151;-78